sensor_id;sensor_type;location;lat;lon;timestamp;pressure;altitude;pressure_sealevel;temperature;humidity
38197;BME280;26543;51.976;4.616;2022-08-23T00:01:12;52301.59;;;-140.72;100.00
38197;BME280;26543;51.976;4.616;2022-08-23T00:03:38;52321.88;;;-140.72;100.00
38197;BME280;26543;51.976;4.616;2022-08-23T00:06:04;52323.91;;;-140.72;100.00
38197;BME280;26543;51.976;4.616;2022-08-23T00:08:30;52325.94;;;-140.72;100.00
38197;BME280;26543;51.976;4.616;2022-08-23T00:10:56;52317.81;;;-140.72;100.00
38197;BME280;26543;51.976;4.616;2022-08-23T00:13:22;52281.28;;;-140.72;100.00
38197;BME280;26543;51.976;4.616;2022-08-23T00:15:47;52283.31;;;-140.72;100.00
38197;BME280;26543;51.976;4.616;2022-08-23T00:18:13;52338.09;;;-140.72;100.00
38197;BME280;26543;51.976;4.616;2022-08-23T00:20:42;52336.06;;;-140.72;100.00
38197;BME280;26543;51.976;4.616;2022-08-23T00:23:07;52327.97;;;-140.72;100.00
38197;BME280;26543;51.976;4.616;2022-08-23T00:25:33;52321.88;;;-140.72;100.00
38197;BME280;26543;51.976;4.616;2022-08-23T00:27:58;52317.81;;;-140.72;100.00
38197;BME280;26543;51.976;4.616;2022-08-23T00:30:23;52325.94;;;-140.72;100.00
38197;BME280;26543;51.976;4.616;2022-08-23T00:32:49;52311.72;;;-140.72;100.00
38197;BME280;26543;51.976;4.616;2022-08-23T00:35:16;52348.25;;;-140.72;100.00
38197;BME280;26543;51.976;4.616;2022-08-23T00:37:42;52293.47;;;-140.72;100.00
38197;BME280;26543;51.976;4.616;2022-08-23T00:40:11;52309.69;;;-140.72;100.00
38197;BME280;26543;51.976;4.616;2022-08-23T00:42:43;52338.09;;;-140.72;100.00
38197;BME280;26543;51.976;4.616;2022-08-23T00:48:53;52301.59;;;-140.72;100.00
38197;BME280;26543;51.976;4.616;2022-08-23T00:51:39;52338.09;;;-140.72;100.00
38197;BME280;26543;51.976;4.616;2022-08-23T00:54:08;52309.69;;;-140.72;100.00
38197;BME280;26543;51.976;4.616;2022-08-23T00:56:36;52327.97;;;-140.72;100.00
38197;BME280;26543;51.976;4.616;2022-08-23T00:59:04;52283.31;;;-140.72;100.00
38197;BME280;26543;51.976;4.616;2022-08-23T01:01:29;52305.63;;;-140.72;100.00
38197;BME280;26543;51.976;4.616;2022-08-23T01:03:57;52285.34;;;-140.72;100.00
38197;BME280;26543;51.976;4.616;2022-08-23T01:06:30;52295.50;;;-140.72;100.00
38197;BME280;26543;51.976;4.616;2022-08-23T01:09:17;52283.31;;;-140.72;100.00
38197;BME280;26543;51.976;4.616;2022-08-23T01:11:55;52297.53;;;-140.72;100.00
38197;BME280;26543;51.976;4.616;2022-08-23T01:14:45;52285.34;;;-140.72;100.00
38197;BME280;26543;51.976;4.616;2022-08-23T01:17:26;52309.69;;;-140.72;100.00
38197;BME280;26543;51.976;4.616;2022-08-23T01:20:00;52313.75;;;-140.72;100.00
38197;BME280;26543;51.976;4.616;2022-08-23T01:23:01;52277.22;;;-140.72;100.00
38197;BME280;26543;51.976;4.616;2022-08-23T01:25:30;52293.47;;;-140.72;100.00
38197;BME280;26543;51.976;4.616;2022-08-23T01:27:57;52309.69;;;-140.72;100.00
38197;BME280;26543;51.976;4.616;2022-08-23T01:30:27;52307.66;;;-140.72;100.00
38197;BME280;26543;51.976;4.616;2022-08-23T01:32:57;52297.53;;;-140.72;100.00
38197;BME280;26543;51.976;4.616;2022-08-23T01:35:30;52285.34;;;-140.72;100.00
38197;BME280;26543;51.976;4.616;2022-08-23T01:37:57;52303.59;;;-140.72;100.00
38197;BME280;26543;51.976;4.616;2022-08-23T01:40:23;52342.16;;;-140.72;100.00
38197;BME280;26543;51.976;4.616;2022-08-23T01:42:48;52303.59;;;-140.72;100.00
38197;BME280;26543;51.976;4.616;2022-08-23T01:45:14;52325.94;;;-140.72;100.00
38197;BME280;26543;51.976;4.616;2022-08-23T01:47:40;52267.09;;;-140.72;100.00
38197;BME280;26543;51.976;4.616;2022-08-23T01:50:08;52346.22;;;-140.72;100.00
38197;BME280;26543;51.976;4.616;2022-08-23T01:52:35;52297.53;;;-140.72;100.00
38197;BME280;26543;51.976;4.616;2022-08-23T01:55:02;52330.00;;;-140.72;100.00
38197;BME280;26543;51.976;4.616;2022-08-23T01:57:29;52325.94;;;-140.72;100.00
38197;BME280;26543;51.976;4.616;2022-08-23T01:59:56;52301.59;;;-140.72;100.00
38197;BME280;26543;51.976;4.616;2022-08-23T02:02:22;52271.16;;;-140.72;100.00
38197;BME280;26543;51.976;4.616;2022-08-23T02:04:47;52299.56;;;-140.72;100.00
38197;BME280;26543;51.976;4.616;2022-08-23T02:07:13;52317.81;;;-140.72;100.00
38197;BME280;26543;51.976;4.616;2022-08-23T02:09:38;52309.69;;;-140.72;100.00
38197;BME280;26543;51.976;4.616;2022-08-23T02:12:04;52325.94;;;-140.72;100.00
38197;BME280;26543;51.976;4.616;2022-08-23T02:14:30;52289.41;;;-140.72;100.00
38197;BME280;26543;51.976;4.616;2022-08-23T02:16:56;52285.34;;;-140.72;100.00
38197;BME280;26543;51.976;4.616;2022-08-23T02:19:22;52313.75;;;-140.72;100.00
38197;BME280;26543;51.976;4.616;2022-08-23T02:21:48;52311.72;;;-140.72;100.00
38197;BME280;26543;51.976;4.616;2022-08-23T02:24:20;52289.41;;;-140.72;100.00
38197;BME280;26543;51.976;4.616;2022-08-23T02:26:51;52295.50;;;-140.72;100.00
38197;BME280;26543;51.976;4.616;2022-08-23T02:29:19;52323.91;;;-140.72;100.00
38197;BME280;26543;51.976;4.616;2022-08-23T02:31:45;52273.19;;;-140.72;100.00
38197;BME280;26543;51.976;4.616;2022-08-23T02:34:12;52301.59;;;-140.72;100.00
38197;BME280;26543;51.976;4.616;2022-08-23T02:36:39;52279.25;;;-140.72;100.00
38197;BME280;26543;51.976;4.616;2022-08-23T02:39:06;52285.34;;;-140.72;100.00
38197;BME280;26543;51.976;4.616;2022-08-23T02:41:32;52321.88;;;-140.72;100.00
38197;BME280;26543;51.976;4.616;2022-08-23T02:43:58;52317.81;;;-140.72;100.00
38197;BME280;26543;51.976;4.616;2022-08-23T02:46:24;52319.84;;;-140.72;100.00
38197;BME280;26543;51.976;4.616;2022-08-23T02:48:49;52348.25;;;-140.72;100.00
38197;BME280;26543;51.976;4.616;2022-08-23T02:51:15;52275.19;;;-140.72;100.00
38197;BME280;26543;51.976;4.616;2022-08-23T02:53:41;52281.28;;;-140.72;100.00
38197;BME280;26543;51.976;4.616;2022-08-23T02:56:06;52311.72;;;-140.72;100.00
38197;BME280;26543;51.976;4.616;2022-08-23T02:58:32;52283.31;;;-140.72;100.00
38197;BME280;26543;51.976;4.616;2022-08-23T03:00:57;52289.41;;;-140.72;100.00
38197;BME280;26543;51.976;4.616;2022-08-23T03:03:23;52285.34;;;-140.72;100.00
38197;BME280;26543;51.976;4.616;2022-08-23T03:05:50;52293.47;;;-140.72;100.00
38197;BME280;26543;51.976;4.616;2022-08-23T03:08:16;52267.09;;;-140.72;100.00
38197;BME280;26543;51.976;4.616;2022-08-23T03:10:43;52299.56;;;-140.72;100.00
38197;BME280;26543;51.976;4.616;2022-08-23T03:13:09;52323.91;;;-140.72;100.00
38197;BME280;26543;51.976;4.616;2022-08-23T03:15:34;52277.22;;;-140.72;100.00
38197;BME280;26543;51.976;4.616;2022-08-23T03:17:59;52313.75;;;-140.72;100.00
38197;BME280;26543;51.976;4.616;2022-08-23T03:20:25;52325.94;;;-140.72;100.00
38197;BME280;26543;51.976;4.616;2022-08-23T03:22:51;52295.50;;;-140.72;100.00
38197;BME280;26543;51.976;4.616;2022-08-23T03:25:16;52295.50;;;-140.72;100.00
38197;BME280;26543;51.976;4.616;2022-08-23T03:27:42;52352.31;;;-140.72;100.00
38197;BME280;26543;51.976;4.616;2022-08-23T03:30:08;52283.31;;;-140.72;100.00
38197;BME280;26543;51.976;4.616;2022-08-23T03:32:34;52299.56;;;-140.72;100.00
38197;BME280;26543;51.976;4.616;2022-08-23T03:34:59;52285.34;;;-140.72;100.00
38197;BME280;26543;51.976;4.616;2022-08-23T03:37:24;52313.75;;;-140.72;100.00
38197;BME280;26543;51.976;4.616;2022-08-23T03:39:50;52327.97;;;-140.72;100.00
38197;BME280;26543;51.976;4.616;2022-08-23T03:42:16;52323.91;;;-140.72;100.00
38197;BME280;26543;51.976;4.616;2022-08-23T03:44:42;52301.59;;;-140.72;100.00
38197;BME280;26543;51.976;4.616;2022-08-23T03:47:07;52313.75;;;-140.72;100.00
38197;BME280;26543;51.976;4.616;2022-08-23T03:49:33;52334.03;;;-140.72;100.00
38197;BME280;26543;51.976;4.616;2022-08-23T03:51:58;52303.59;;;-140.72;100.00
38197;BME280;26543;51.976;4.616;2022-08-23T03:54:25;52348.25;;;-140.72;100.00
38197;BME280;26543;51.976;4.616;2022-08-23T03:57:04;52301.59;;;-140.72;100.00
38197;BME280;26543;51.976;4.616;2022-08-23T03:59:31;52336.06;;;-140.72;100.00
38197;BME280;26543;51.976;4.616;2022-08-23T04:01:58;52301.59;;;-140.72;100.00
38197;BME280;26543;51.976;4.616;2022-08-23T04:04:23;52334.03;;;-140.72;100.00
38197;BME280;26543;51.976;4.616;2022-08-23T04:06:49;52309.69;;;-140.72;100.00
38197;BME280;26543;51.976;4.616;2022-08-23T04:09:15;52309.69;;;-140.72;100.00
38197;BME280;26543;51.976;4.616;2022-08-23T04:11:41;52311.72;;;-140.72;100.00
38197;BME280;26543;51.976;4.616;2022-08-23T04:14:07;52321.88;;;-140.72;100.00
38197;BME280;26543;51.976;4.616;2022-08-23T04:16:33;52338.09;;;-140.72;100.00
38197;BME280;26543;51.976;4.616;2022-08-23T04:19:06;52317.81;;;-140.72;100.00
38197;BME280;26543;51.976;4.616;2022-08-23T04:21:35;52366.50;;;-140.72;100.00
38197;BME280;26543;51.976;4.616;2022-08-23T04:24:02;52325.94;;;-140.72;100.00
38197;BME280;26543;51.976;4.616;2022-08-23T04:26:28;52346.22;;;-140.72;100.00
38197;BME280;26543;51.976;4.616;2022-08-23T04:28:54;52321.88;;;-140.72;100.00
38197;BME280;26543;51.976;4.616;2022-08-23T04:31:20;52313.75;;;-140.72;100.00
38197;BME280;26543;51.976;4.616;2022-08-23T04:33:46;52285.34;;;-140.72;100.00
38197;BME280;26543;51.976;4.616;2022-08-23T04:36:11;52301.59;;;-140.72;100.00
38197;BME280;26543;51.976;4.616;2022-08-23T04:38:37;52325.94;;;-140.72;100.00
38197;BME280;26543;51.976;4.616;2022-08-23T04:41:02;52303.59;;;-140.72;100.00
38197;BME280;26543;51.976;4.616;2022-08-23T04:43:46;52342.16;;;-140.72;100.00
38197;BME280;26543;51.976;4.616;2022-08-23T04:46:12;52330.00;;;-140.72;100.00
38197;BME280;26543;51.976;4.616;2022-08-23T04:48:42;52334.03;;;-140.72;100.00
38197;BME280;26543;51.976;4.616;2022-08-23T04:51:09;52315.78;;;-140.72;100.00
38197;BME280;26543;51.976;4.616;2022-08-23T04:53:35;52346.22;;;-140.72;100.00
38197;BME280;26543;51.976;4.616;2022-08-23T04:56:02;52327.97;;;-140.72;100.00
38197;BME280;26543;51.976;4.616;2022-08-23T04:58:29;52350.28;;;-140.72;100.00
38197;BME280;26543;51.976;4.616;2022-08-23T05:00:57;52358.41;;;-140.72;100.00
38197;BME280;26543;51.976;4.616;2022-08-23T05:03:23;52370.56;;;-140.72;100.00
38197;BME280;26543;51.976;4.616;2022-08-23T05:05:48;52315.78;;;-140.72;100.00
38197;BME280;26543;51.976;4.616;2022-08-23T05:08:14;52332.03;;;-140.72;100.00
38197;BME280;26543;51.976;4.616;2022-08-23T05:10:39;52321.88;;;-140.72;100.00
38197;BME280;26543;51.976;4.616;2022-08-23T05:13:05;52336.06;;;-140.72;100.00
38197;BME280;26543;51.976;4.616;2022-08-23T05:15:30;52334.03;;;-140.72;100.00
38197;BME280;26543;51.976;4.616;2022-08-23T05:17:56;52338.09;;;-140.72;100.00
38197;BME280;26543;51.976;4.616;2022-08-23T05:20:21;52297.53;;;-140.72;100.00
38197;BME280;26543;51.976;4.616;2022-08-23T05:22:47;52311.72;;;-140.72;100.00
38197;BME280;26543;51.976;4.616;2022-08-23T05:25:12;52358.41;;;-140.72;100.00
38197;BME280;26543;51.976;4.616;2022-08-23T05:27:38;52340.13;;;-140.72;100.00
38197;BME280;26543;51.976;4.616;2022-08-23T05:30:05;52338.09;;;-140.72;100.00
38197;BME280;26543;51.976;4.616;2022-08-23T05:32:31;52338.09;;;-140.72;100.00
38197;BME280;26543;51.976;4.616;2022-08-23T05:34:56;52350.28;;;-140.72;100.00
38197;BME280;26543;51.976;4.616;2022-08-23T05:37:21;52327.97;;;-140.72;100.00
38197;BME280;26543;51.976;4.616;2022-08-23T05:39:47;52325.94;;;-140.72;100.00
38197;BME280;26543;51.976;4.616;2022-08-23T05:42:14;52342.16;;;-140.72;100.00
38197;BME280;26543;51.976;4.616;2022-08-23T05:44:42;52334.03;;;-140.72;100.00
38197;BME280;26543;51.976;4.616;2022-08-23T05:47:13;52327.97;;;-140.72;100.00
38197;BME280;26543;51.976;4.616;2022-08-23T05:49:39;52327.97;;;-140.72;100.00
38197;BME280;26543;51.976;4.616;2022-08-23T05:52:07;52356.38;;;-140.72;100.00
38197;BME280;26543;51.976;4.616;2022-08-23T05:54:34;52354.34;;;-140.72;100.00
38197;BME280;26543;51.976;4.616;2022-08-23T05:56:59;52305.63;;;-140.72;100.00
38197;BME280;26543;51.976;4.616;2022-08-23T05:59:25;52338.09;;;-140.72;100.00
38197;BME280;26543;51.976;4.616;2022-08-23T06:01:50;52352.31;;;-140.72;100.00
38197;BME280;26543;51.976;4.616;2022-08-23T06:04:16;52330.00;;;-140.72;100.00
38197;BME280;26543;51.976;4.616;2022-08-23T06:06:42;52307.66;;;-140.72;100.00
38197;BME280;26543;51.976;4.616;2022-08-23T06:09:10;52295.50;;;-140.72;100.00
38197;BME280;26543;51.976;4.616;2022-08-23T06:11:36;52313.75;;;-140.72;100.00
38197;BME280;26543;51.976;4.616;2022-08-23T06:14:04;52334.03;;;-140.72;100.00
38197;BME280;26543;51.976;4.616;2022-08-23T06:16:32;52309.69;;;-140.72;100.00
38197;BME280;26543;51.976;4.616;2022-08-23T06:18:58;52301.59;;;-140.72;100.00
38197;BME280;26543;51.976;4.616;2022-08-23T06:21:24;52303.59;;;-140.72;100.00
38197;BME280;26543;51.976;4.616;2022-08-23T06:23:50;52299.56;;;-140.72;100.00
38197;BME280;26543;51.976;4.616;2022-08-23T06:26:22;52277.22;;;-140.72;100.00
38197;BME280;26543;51.976;4.616;2022-08-23T06:28:50;52307.66;;;-140.72;100.00
38197;BME280;26543;51.976;4.616;2022-08-23T06:31:17;52307.66;;;-140.72;100.00
38197;BME280;26543;51.976;4.616;2022-08-23T06:34:03;52321.88;;;-140.72;100.00
38197;BME280;26543;51.976;4.616;2022-08-23T06:36:28;52277.22;;;-140.72;100.00
38197;BME280;26543;51.976;4.616;2022-08-23T06:38:54;52248.81;;;-140.72;100.00
38197;BME280;26543;51.976;4.616;2022-08-23T06:41:19;52271.16;;;-140.72;100.00
38197;BME280;26543;51.976;4.616;2022-08-23T06:43:44;52283.31;;;-140.72;100.00
38197;BME280;26543;51.976;4.616;2022-08-23T06:46:16;52281.28;;;-140.72;100.00
38197;BME280;26543;51.976;4.616;2022-08-23T06:48:43;52275.19;;;-140.72;100.00
38197;BME280;26543;51.976;4.616;2022-08-23T06:51:14;52277.22;;;-140.72;100.00
38197;BME280;26543;51.976;4.616;2022-08-23T06:53:44;52248.81;;;-140.72;100.00
38197;BME280;26543;51.976;4.616;2022-08-23T06:56:10;52238.69;;;-140.72;100.00
38197;BME280;26543;51.976;4.616;2022-08-23T06:58:36;52261.00;;;-140.72;100.00
38197;BME280;26543;51.976;4.616;2022-08-23T07:01:17;52226.50;;;-140.72;100.00
38197;BME280;26543;51.976;4.616;2022-08-23T07:03:43;52258.97;;;-140.72;100.00
38197;BME280;26543;51.976;4.616;2022-08-23T07:06:09;52254.91;;;-140.72;100.00
38197;BME280;26543;51.976;4.616;2022-08-23T07:08:34;52238.69;;;-140.72;100.00
38197;BME280;26543;51.976;4.616;2022-08-23T07:10:59;52208.25;;;-140.72;100.00
38197;BME280;26543;51.976;4.616;2022-08-23T07:13:25;52185.94;;;-140.72;100.00
38197;BME280;26543;51.976;4.616;2022-08-23T07:15:56;52250.84;;;-140.72;100.00
38197;BME280;26543;51.976;4.616;2022-08-23T07:18:22;52224.47;;;-140.72;100.00
38197;BME280;26543;51.976;4.616;2022-08-23T07:20:47;52242.75;;;-140.72;100.00
38197;BME280;26543;51.976;4.616;2022-08-23T07:23:12;52204.19;;;-140.72;100.00
38197;BME280;26543;51.976;4.616;2022-08-23T07:25:39;52192.00;;;-140.72;100.00
38197;BME280;26543;51.976;4.616;2022-08-23T07:28:05;52222.44;;;-140.72;100.00
38197;BME280;26543;51.976;4.616;2022-08-23T07:30:30;52208.25;;;-140.72;100.00
38197;BME280;26543;51.976;4.616;2022-08-23T07:32:55;52212.31;;;-140.72;100.00
38197;BME280;26543;51.976;4.616;2022-08-23T07:35:21;52153.47;;;-140.72;100.00
38197;BME280;26543;51.976;4.616;2022-08-23T07:37:46;52236.66;;;-140.72;100.00
38197;BME280;26543;51.976;4.616;2022-08-23T07:40:12;52204.19;;;-140.72;100.00
38197;BME280;26543;51.976;4.616;2022-08-23T07:42:37;52242.75;;;-140.72;100.00
38197;BME280;26543;51.976;4.616;2022-08-23T07:45:03;52179.84;;;-140.72;100.00
38197;BME280;26543;51.976;4.616;2022-08-23T07:47:28;52236.66;;;-140.72;100.00
38197;BME280;26543;51.976;4.616;2022-08-23T07:49:54;52196.06;;;-140.72;100.00
38197;BME280;26543;51.976;4.616;2022-08-23T07:52:20;52192.00;;;-140.72;100.00
38197;BME280;26543;51.976;4.616;2022-08-23T07:54:46;52210.28;;;-140.72;100.00
38197;BME280;26543;51.976;4.616;2022-08-23T07:57:11;52240.72;;;-140.72;100.00
38197;BME280;26543;51.976;4.616;2022-08-23T07:59:36;52159.56;;;-140.72;100.00
38197;BME280;26543;51.976;4.616;2022-08-23T08:02:02;52183.91;;;-140.72;100.00
38197;BME280;26543;51.976;4.616;2022-08-23T08:04:27;52157.53;;;-140.72;100.00
38197;BME280;26543;51.976;4.616;2022-08-23T08:06:53;52204.19;;;-140.72;100.00
38197;BME280;26543;51.976;4.616;2022-08-23T08:09:18;52151.44;;;-140.72;100.00
38197;BME280;26543;51.976;4.616;2022-08-23T08:11:46;52183.91;;;-140.72;100.00
38197;BME280;26543;51.976;4.616;2022-08-23T08:14:12;52139.25;;;-140.72;100.00
38197;BME280;26543;51.976;4.616;2022-08-23T08:16:42;52151.44;;;-140.72;100.00
38197;BME280;26543;51.976;4.616;2022-08-23T08:19:10;52125.06;;;-140.72;100.00
38197;BME280;26543;51.976;4.616;2022-08-23T08:21:37;52110.84;;;-140.72;100.00
38197;BME280;26543;51.976;4.616;2022-08-23T08:24:04;52116.94;;;-140.72;100.00
38197;BME280;26543;51.976;4.616;2022-08-23T08:26:30;52116.94;;;-140.72;100.00
38197;BME280;26543;51.976;4.616;2022-08-23T08:28:56;52062.16;;;-140.72;100.00
38197;BME280;26543;51.976;4.616;2022-08-23T08:31:23;52003.31;;;-140.72;100.00
38197;BME280;26543;51.976;4.616;2022-08-23T08:33:49;52029.69;;;-140.72;100.00
38197;BME280;26543;51.976;4.616;2022-08-23T08:36:40;51997.22;;;-140.72;33.57
38197;BME280;26543;51.976;4.616;2022-08-23T08:39:12;52025.63;;;-140.72;0.00
38197;BME280;26543;51.976;4.616;2022-08-23T08:44:48;52041.88;;;-140.72;0.00
38197;BME280;26543;51.976;4.616;2022-08-23T08:47:28;52039.84;;;-140.72;0.00
38197;BME280;26543;51.976;4.616;2022-08-23T08:50:08;52031.72;;;-140.72;0.00
38197;BME280;26543;51.976;4.616;2022-08-23T08:52:42;52013.47;;;-140.72;0.00
38197;BME280;26543;51.976;4.616;2022-08-23T08:55:21;52025.63;;;-140.72;0.00
38197;BME280;26543;51.976;4.616;2022-08-23T08:57:51;51997.22;;;-140.72;0.00
38197;BME280;26543;51.976;4.616;2022-08-23T09:00:24;52029.69;;;-140.72;0.00
38197;BME280;26543;51.976;4.616;2022-08-23T09:02:50;52037.81;;;-140.72;0.00
38197;BME280;26543;51.976;4.616;2022-08-23T09:05:23;51972.88;;;-140.72;0.00
38197;BME280;26543;51.976;4.616;2022-08-23T09:10:48;51942.44;;;-140.72;0.00
38197;BME280;26543;51.976;4.616;2022-08-23T09:18:39;51887.66;;;-140.72;0.00
38197;BME280;26543;51.976;4.616;2022-08-23T09:21:06;51875.50;;;-140.72;0.00
38197;BME280;26543;51.976;4.616;2022-08-23T09:23:36;51877.53;;;-140.72;0.00
38197;BME280;26543;51.976;4.616;2022-08-23T09:26:20;51845.06;;;-140.72;0.00
38197;BME280;26543;51.976;4.616;2022-08-23T09:28:49;51879.56;;;-140.72;0.00
38197;BME280;26543;51.976;4.616;2022-08-23T09:31:39;51914.03;;;-140.72;0.00
38197;BME280;26543;51.976;4.616;2022-08-23T09:34:06;51936.38;;;-140.72;0.00
38197;BME280;26543;51.976;4.616;2022-08-23T09:36:35;51928.25;;;-140.72;0.00
38197;BME280;26543;51.976;4.616;2022-08-23T09:39:25;51914.03;;;-140.72;0.00
38197;BME280;26543;51.976;4.616;2022-08-23T09:41:51;51948.53;;;-140.72;0.00
38197;BME280;26543;51.976;4.616;2022-08-23T09:47:09;51989.13;;;-140.72;0.00
38197;BME280;26543;51.976;4.616;2022-08-23T09:49:36;52003.31;;;-140.72;0.00
38197;BME280;26543;51.976;4.616;2022-08-23T09:52:31;51974.91;;;-140.72;0.00
38197;BME280;26543;51.976;4.616;2022-08-23T09:55:00;51962.75;;;-140.72;0.00
38197;BME280;26543;51.976;4.616;2022-08-23T09:57:30;51946.50;;;-140.72;0.00
38197;BME280;26543;51.976;4.616;2022-08-23T10:02:40;51946.50;;;-140.72;0.00
38197;BME280;26543;51.976;4.616;2022-08-23T10:05:19;51942.44;;;-140.72;0.00
38197;BME280;26543;51.976;4.616;2022-08-23T10:07:59;51928.25;;;-140.72;0.00
38197;BME280;26543;51.976;4.616;2022-08-23T10:13:01;51924.19;;;-140.72;0.00
38197;BME280;26543;51.976;4.616;2022-08-23T10:18:54;51885.66;;;-140.72;0.00
38197;BME280;26543;51.976;4.616;2022-08-23T10:24:21;51863.31;;;-140.72;0.00
38197;BME280;26543;51.976;4.616;2022-08-23T10:27:07;51905.94;;;-140.72;0.00
38197;BME280;26543;51.976;4.616;2022-08-23T10:30:01;51802.47;;;-140.72;0.00
38197;BME280;26543;51.976;4.616;2022-08-23T10:32:46;51865.34;;;-140.72;0.00
38197;BME280;26543;51.976;4.616;2022-08-23T10:35:31;51972.88;;;-140.72;0.00
38197;BME280;26543;51.976;4.616;2022-08-23T10:41:00;51759.84;;;-140.72;0.00
38197;BME280;26543;51.976;4.616;2022-08-23T10:45:56;51715.22;;;-140.72;0.00
38197;BME280;26543;51.976;4.616;2022-08-23T10:48:28;51696.97;;;-140.72;0.00
38197;BME280;26543;51.976;4.616;2022-08-23T10:51:09;51630.00;;;-140.72;0.00
38197;BME280;26543;51.976;4.616;2022-08-23T10:53:39;51690.88;;;-140.72;0.00
38197;BME280;26543;51.976;4.616;2022-08-23T10:56:12;51672.63;;;-140.72;0.00
38197;BME280;26543;51.976;4.616;2022-08-23T10:59:01;51676.69;;;-140.72;0.00
38197;BME280;26543;51.976;4.616;2022-08-23T11:01:38;51609.72;;;-140.72;0.00
38197;BME280;26543;51.976;4.616;2022-08-23T11:04:19;51656.38;;;-140.72;0.00
38197;BME280;26543;51.976;4.616;2022-08-23T11:06:53;51656.38;;;-140.72;0.00
38197;BME280;26543;51.976;4.616;2022-08-23T11:12:03;51605.66;;;-140.72;0.00
38197;BME280;26543;51.976;4.616;2022-08-23T11:17:00;51664.50;;;-140.72;0.00
38197;BME280;26543;51.976;4.616;2022-08-23T11:22:17;51701.03;;;-140.72;0.00
38197;BME280;26543;51.976;4.616;2022-08-23T11:29:52;51703.06;;;-140.72;0.00
38197;BME280;26543;51.976;4.616;2022-08-23T11:32:26;51644.22;;;-140.72;0.00
38197;BME280;26543;51.976;4.616;2022-08-23T11:37:53;51534.66;;;-140.72;0.00
38197;BME280;26543;51.976;4.616;2022-08-23T11:43:34;51554.94;;;-140.72;0.00
38197;BME280;26543;51.976;4.616;2022-08-23T11:56:46;51467.72;;;-140.72;0.00
38197;BME280;26543;51.976;4.616;2022-08-23T12:01:48;51467.72;;;-140.72;0.00
38197;BME280;26543;51.976;4.616;2022-08-23T12:06:57;51520.47;;;-140.72;0.00
38197;BME280;26543;51.976;4.616;2022-08-23T12:17:02;51725.38;;;-140.72;0.00
38197;BME280;26543;51.976;4.616;2022-08-23T12:19:43;51676.69;;;-140.72;0.00
38197;BME280;26543;51.976;4.616;2022-08-23T12:22:18;51603.63;;;-140.72;0.00
38197;BME280;26543;51.976;4.616;2022-08-23T12:24:49;51522.50;;;-140.72;0.00
38197;BME280;26543;51.976;4.616;2022-08-23T12:32:46;51625.97;;;-140.72;0.00
38197;BME280;26543;51.976;4.616;2022-08-23T12:35:45;51705.06;;;-140.72;0.00
38197;BME280;26543;51.976;4.616;2022-08-23T12:40:52;51733.47;;;-140.72;0.00
38197;BME280;26543;51.976;4.616;2022-08-23T12:43:25;51731.44;;;-140.72;0.00
38197;BME280;26543;51.976;4.616;2022-08-23T12:45:59;51628.00;;;-140.72;0.00
38197;BME280;26543;51.976;4.616;2022-08-23T12:48:30;51526.56;;;-140.72;0.00
38197;BME280;26543;51.976;4.616;2022-08-23T12:51:07;51733.47;;;-140.72;0.00
38197;BME280;26543;51.976;4.616;2022-08-23T12:53:38;51741.59;;;-140.72;0.00
38197;BME280;26543;51.976;4.616;2022-08-23T12:56:13;51753.78;;;-140.72;0.00
38197;BME280;26543;51.976;4.616;2022-08-23T12:58:44;51810.56;;;-140.72;0.00
38197;BME280;26543;51.976;4.616;2022-08-23T13:01:32;51873.47;;;-140.72;0.00
38197;BME280;26543;51.976;4.616;2022-08-23T13:04:03;51812.59;;;-140.72;0.00
38197;BME280;26543;51.976;4.616;2022-08-23T13:06:34;51826.81;;;-140.72;0.00
38197;BME280;26543;51.976;4.616;2022-08-23T13:09:28;51820.72;;;-140.72;0.00
38197;BME280;26543;51.976;4.616;2022-08-23T13:11:52;51822.75;;;-140.72;0.00
38197;BME280;26543;51.976;4.616;2022-08-23T13:14:41;51780.16;;;-140.72;0.00
38197;BME280;26543;51.976;4.616;2022-08-23T13:20:36;51822.75;;;-140.72;0.00
38197;BME280;26543;51.976;4.616;2022-08-23T13:22:38;51834.91;;;-140.72;0.00
38197;BME280;26543;51.976;4.616;2022-08-23T13:25:28;51847.09;;;-140.72;0.00
38197;BME280;26543;51.976;4.616;2022-08-23T13:28:00;51901.88;;;-140.72;0.00
38197;BME280;26543;51.976;4.616;2022-08-23T13:30:37;51912.03;;;-140.72;0.00
38197;BME280;26543;51.976;4.616;2022-08-23T13:38:23;51964.78;;;-140.72;0.00
38197;BME280;26543;51.976;4.616;2022-08-23T13:41:09;51938.41;;;-140.72;0.00
38197;BME280;26543;51.976;4.616;2022-08-23T13:46:15;51920.13;;;-140.72;0.00
38197;BME280;26543;51.976;4.616;2022-08-23T13:49:00;51938.41;;;-140.72;0.00
38197;BME280;26543;51.976;4.616;2022-08-23T13:51:28;51940.41;;;-140.72;0.00
38197;BME280;26543;51.976;4.616;2022-08-23T13:53:55;51954.63;;;-140.72;0.00
38197;BME280;26543;51.976;4.616;2022-08-23T13:56:21;51940.41;;;-140.72;0.00
38197;BME280;26543;51.976;4.616;2022-08-23T13:59:03;51910.00;;;-140.72;0.00
38197;BME280;26543;51.976;4.616;2022-08-23T14:01:29;51924.19;;;-140.72;0.00
38197;BME280;26543;51.976;4.616;2022-08-23T14:03:55;51962.75;;;-140.72;0.00
38197;BME280;26543;51.976;4.616;2022-08-23T14:06:21;51956.66;;;-140.72;0.00
38197;BME280;26543;51.976;4.616;2022-08-23T14:08:47;51950.56;;;-140.72;0.00
38197;BME280;26543;51.976;4.616;2022-08-23T14:11:14;51912.03;;;-140.72;0.00
38197;BME280;26543;51.976;4.616;2022-08-23T14:13:43;51956.66;;;-140.72;0.00
38197;BME280;26543;51.976;4.616;2022-08-23T14:16:13;51978.97;;;-140.72;0.00
38197;BME280;26543;51.976;4.616;2022-08-23T14:18:40;51928.25;;;-140.72;0.00
38197;BME280;26543;51.976;4.616;2022-08-23T14:21:06;51962.75;;;-140.72;0.00
38197;BME280;26543;51.976;4.616;2022-08-23T14:23:32;51964.78;;;-140.72;0.00